Meeker, CO

9:50 PM MDT on July 23, 2014 (GMT -0600)
Meeker (KEEO) Elev 6421 ft | 40.05 °N, 107.89 °W | Change Station

Current weather conditions updated 1 hour ago

Partly Cloudy
Partly Cloudy
87 °F
Feels Like 87 °F
N
16
Wind Variable Wind from WSW
Gusts 23 mph

Tomorrow is forecast to be Much Cooler than today. Afternoon showers and thunderstorms.

Today
High -- | Low -- °F
--% Chance of Precip.
Yesterday
High -- | Low -- °F
Precip. -- in
6:02 AM 8:34 PM
Waning Crescent, 7% visible
Pressure 29.92 in
Visibility 10.0 miles
Clouds Few 4400 ft
Few 7500 ft
Few 10000 ft
Dew Point 37 °F
Humidity 17%
Rainfall 0.00 in
Snow Depth Not available.
UV 0 out of 12
Pollen 6.20 out of 12
Air Quality Not available.
Flu Activity Not available.
METAR KEEO 240153Z AUTO 25014G20KT 10SM FEW044 FEW075 FEW100 31/03 A3023 RMK AO2 SLP130 T03060028

More Conditions Fewer Conditions

Pressure 29.92 in
Visibility 10.0 miles
Clouds Few 4400 ft
Few 7500 ft
Few 10000 ft
Dew Point 37 °F
Humidity 17%
Rainfall 0.00 in
Snow Depth Not available.
UV 0 out of 12
Pollen 6.20 out of 12
Air Quality Not available.
Flu Activity Not available.
METAR KEEO 240153Z AUTO 25014G20KT 10SM FEW044 FEW075 FEW100 31/03 A3023 RMK AO2 SLP130 T03060028

More Conditions Fewer Conditions

10-Day Weather Forecast

Almanac

Astronomy

Jul. 23, 2014 Rise Set
Actual Time 6:02 AM MDT 8:34 PM MDT
Civil Twilight 5:30 AM MDT 9:05 PM MDT
Nautical Twilight 4:52 AM MDT 9:43 PM MDT
Astronomical Twilight 4:08 AM MDT 10:26 PM MDT
Moon 3:23 AM MDT (7/23) 6:05 PM MDT (7/23)
Length of Visible Light 15h 34m
Length of Day
14h 31m
Tomorrow will be 1m 42s shorter.
Waning Crescent, 7% of the Moon is Illuminated
Today
Waning Crescent
Jul 26
New
Aug 3
First Quarter
Aug 10
Full
Aug 17
Last Quarter

Today's Extremes

State Highs State Lows

Community

WunderPhotos

Upload Photos

1,736,891 photos uploaded!

Nearby

Snow Depth

Station Depth Elevation
Ripple Creek 2 in 10340 ft
Trapper Lake 0 in 9700 ft
Overland Reservoir 0 in 9880 ft
McClure Pass 30 in 9500 ft
Beaver Creek Village 0 in 8500 ft

Earthquake Activity

City Distance Mag. Time & Date
No recent earthquake activity has been reported nearby.
Minimum magnitude displayed is 2.5.

Coastal Water Temperatures

Place Temperature
No Stations Reporting

Nearby Weather Stations

Station Location Temp. Heat Index Dew Point Humidity Wind Precip. Elev Updated Type
RAWS CRDBLMFTS CO, Hamilton, CO 78 °F 78 °F 36 °F 22% SSE  at  6 mph 0.00 in / hr 7633 ft 8:42 PM MDT MADIS
RAWS PINTO CO, Dinosaur, CO 84 °F 81 °F 31 °F 15% SW  at  6 mph 0.00 in / hr 6671 ft 8:23 PM MDT MADIS
RAWS DEEP CREEK CO, New Castle, CO 64 °F - 38 °F 38% SE  at  10 mph 0.00 in / hr 9403 ft 8:55 PM MDT MADIS

Show More Stations Show Fewer Stations